Time;durP1;ratioP1;P1;durP2;ratioP2;P2;SDS_P1;SDS_P2;PMS_P1;PMS_P2;Temp;Humidity;BMP_temperature;BMP_pressure;BME280_temperature;BME280_humidity;BME280_pressure;Samples;Min_cycle;Max_cycle;Signal;HPM_P1;HPM_P2
2021/10/23 00:00:10;;;;;;;;;;;;;;;6.89;98.74;99680.52;1706185;81;23033;-86
2021/10/23 00:02:37;;;;;;;;;;;;;;;6.83;98.64;99671.41;1742062;81;20752;-84
2021/10/23 00:05:06;;;;;;;;;;;;;;;6.81;98.62;99684.67;1738367;81;20234;-84
2021/10/23 00:07:31;;;;;;;;;;;;;;;6.79;97.97;99691.03;1735636;81;20237;-82
2021/10/23 00:09:57;;;;;;;;;;;;;;;6.80;97.75;99694.82;1737318;81;20177;-85
2021/10/23 00:12:24;;;;;;;;;;;;;;;6.78;97.83;99686.77;1739127;81;21090;-83
2021/10/23 00:14:50;;;;;;;;;;;;;;;6.81;98.14;99692.55;1738077;81;20625;-83
2021/10/23 00:17:16;;;;;;;;;;;;;;;6.87;97.47;99698.19;1705378;81;20162;-84
2021/10/23 00:19:42;;;;;;;;;;;;;;;6.83;97.79;99689.28;1740092;81;20562;-81
2021/10/23 00:22:11;;;;;;;;;;;;;;;6.80;97.85;99706.63;1736810;81;20162;-84
2021/10/23 00:24:36;;;;;;;;;;;;;;;6.79;97.75;99694.50;1740998;81;21100;-82
2021/10/23 00:27:02;;;;;;;;;;;;;;;6.78;97.90;99698.58;1707261;81;20119;-82
2021/10/23 00:29:28;;;;;;;;;;;;;;;6.79;96.91;99724.68;1741575;81;20375;-83
2021/10/23 00:31:53;;;;;;;;;;;;;;;6.83;96.87;99717.34;1741083;81;20194;-82
2021/10/23 00:34:20;;;;;;;;;;;;;;;6.80;96.45;99721.06;1739219;81;20183;-82
2021/10/23 00:36:46;;;;;;;;;;;;;;;6.78;96.33;99713.83;1738746;81;21846;-82
2021/10/23 00:39:17;;;;;;;;;;;;;;;6.77;96.45;99720.03;1738576;81;20185;-82
2021/10/23 00:41:45;;;;;;;;;;;;;;;6.82;95.95;99728.33;1741360;81;20197;-82
2021/10/23 00:44:37;;;;;;;;;;;;;;;6.81;95.92;99733.23;1711480;81;20186;-82
2021/10/23 00:47:05;;;;;;;;;;;;;;;6.81;95.67;99743.73;1710039;81;20526;-83
2021/10/23 00:49:31;;;;;;;;;;;;;;;6.82;95.75;99758.52;1734616;81;21012;-81
2021/10/23 00:52:03;;;;;;;;;;;;;;;6.83;95.73;99741.78;1706287;81;20490;-82
2021/10/23 00:54:29;;;;;;;;;;;;;;;6.86;95.40;99733.30;1742577;81;20204;-83
2021/10/23 00:56:54;;;;;;;;;;;;;;;6.83;95.23;99749.66;1740524;81;20991;-83
2021/10/23 00:59:26;;;;;;;;;;;;;;;6.89;95.04;99743.52;1738911;81;20150;-83
2021/10/23 01:01:54;;;;;;;;;;;;;;;6.85;95.30;99746.88;1733443;81;21201;-81
2021/10/23 01:04:20;;;;;;;;;;;;;;;6.83;94.68;99745.71;1740423;81;20193;-80
2021/10/23 01:06:50;;;;;;;;;;;;;;;6.89;94.89;99744.83;1706428;81;20403;-81
2021/10/23 01:09:19;;;;;;;;;;;;;;;6.85;94.86;99753.94;1739153;81;20137;-81
2021/10/23 01:11:46;;;;;;;;;;;;;;;6.83;94.98;99745.71;1711248;81;20270;-80
2021/10/23 01:14:13;;;;;;;;;;;;;;;6.79;94.68;99757.48;1738203;81;21061;-83
2021/10/23 01:16:45;;;;;;;;;;;;;;;6.80;94.60;99814.73;1740983;81;20194;-84
2021/10/23 01:19:11;;;;;;;;;;;;;;;6.78;94.51;99747.13;1735930;80;20220;-84
2021/10/23 01:21:39;;;;;;;;;;;;;;;6.81;94.57;99740.28;1737893;81;21027;-83
2021/10/23 01:24:06;;;;;;;;;;;;;;;6.82;94.04;99764.23;1739420;81;20178;-84
2021/10/23 01:26:34;;;;;;;;;;;;;;;6.78;93.94;99753.20;1740785;81;21525;-83
2021/10/23 01:29:00;;;;;;;;;;;;;;;6.71;94.23;99755.21;1728364;81;20198;-82
2021/10/23 01:31:27;;;;;;;;;;;;;;;6.71;94.37;99757.84;1729978;82;20150;-84
2021/10/23 01:33:52;;;;;;;;;;;;;;;6.63;94.56;99744.95;1731177;81;20195;-84
2021/10/23 01:36:18;;;;;;;;;;;;;;;6.59;94.73;99761.12;1729950;82;20184;-82
2021/10/23 01:38:44;;;;;;;;;;;;;;;6.60;95.02;99744.39;1727657;82;21168;-83
2021/10/23 01:41:18;;;;;;;;;;;;;;;6.60;95.01;99750.48;1732176;82;20204;-83
2021/10/23 01:43:45;;;;;;;;;;;;;;;6.53;95.23;99767.73;1729940;82;20174;-87
2021/10/23 01:46:11;;;;;;;;;;;;;;;6.55;95.07;99757.92;1729802;81;20226;-86
2021/10/23 01:48:38;;;;;;;;;;;;;;;6.60;94.98;99757.50;1705377;82;20935;-85
2021/10/23 01:51:05;;;;;;;;;;;;;;;6.58;94.82;99788.30;1732021;82;21123;-86
2021/10/23 01:53:32;;;;;;;;;;;;;;;6.61;94.39;99765.73;1686084;82;20938;-85
2021/10/23 01:56:00;;;;;;;;;;;;;;;6.75;93.99;99773.66;1729389;81;21031;-85
2021/10/23 01:58:30;;;;;;;;;;;;;;;6.65;94.13;99784.17;1706009;82;20198;-85
2021/10/23 02:00:56;;;;;;;;;;;;;;;6.65;93.57;99798.11;1728392;81;20587;-83
2021/10/23 02:03:21;;;;;;;;;;;;;;;6.69;93.59;99780.28;1728898;82;21091;-82
2021/10/23 02:05:47;;;;;;;;;;;;;;;6.55;92.86;99810.88;1732047;82;20182;-83
2021/10/23 02:08:14;;;;;;;;;;;;;;;6.64;92.98;99798.25;1726797;82;20319;-83
2021/10/23 02:10:40;;;;;;;;;;;;;;;6.65;92.43;99797.29;1727995;82;20341;-83
2021/10/23 02:13:09;;;;;;;;;;;;;;;6.66;91.58;99843.53;1732186;81;20245;-83
2021/10/23 02:15:35;;;;;;;;;;;;;;;6.61;90.76;99814.27;1732303;81;20122;-83
2021/10/23 02:18:03;;;;;;;;;;;;;;;6.59;90.44;99835.39;1728662;82;20158;-83
2021/10/23 02:20:33;;;;;;;;;;;;;;;6.74;89.77;99812.66;1727384;82;20131;-83
2021/10/23 02:22:57;;;;;;;;;;;;;;;6.71;90.01;99830.00;1729606;82;20186;-83
2021/10/23 02:25:22;;;;;;;;;;;;;;;6.65;89.74;99816.97;1730024;82;20203;-80
2021/10/23 02:27:49;;;;;;;;;;;;;;;6.70;89.35;99819.99;1713193;81;21466;-83
2021/10/23 02:30:15;;;;;;;;;;;;;;;6.62;89.05;99823.80;1739468;81;20204;-81
2021/10/23 02:32:41;;;;;;;;;;;;;;;6.59;88.99;99831.95;1711215;81;21151;-80
2021/10/23 02:35:10;;;;;;;;;;;;;;;6.64;88.72;99821.86;1743487;81;20476;-79
2021/10/23 02:37:38;;;;;;;;;;;;;;;6.65;88.60;99834.84;1742453;81;20177;-82
2021/10/23 02:40:06;;;;;;;;;;;;;;;6.69;88.55;99848.50;1742646;81;21152;-83
2021/10/23 02:42:34;;;;;;;;;;;;;;;6.63;88.43;99846.43;1712916;81;20134;-81
2021/10/23 02:45:00;;;;;;;;;;;;;;;6.60;88.60;99833.59;1738800;81;20676;-83
2021/10/23 02:47:27;;;;;;;;;;;;;;;6.55;88.32;99825.31;1734946;81;20210;-84
2021/10/23 02:49:56;;;;;;;;;;;;;;;6.52;88.30;99833.45;1735071;81;20223;-82
2021/10/23 02:52:22;;;;;;;;;;;;;;;6.46;88.38;99831.73;1737896;81;20184;-82
2021/10/23 02:54:49;;;;;;;;;;;;;;;6.40;88.38;99850.64;1741549;81;20240;-82
2021/10/23 02:57:17;;;;;;;;;;;;;;;6.39;88.25;99860.78;1710580;81;20186;-83
2021/10/23 02:59:43;;;;;;;;;;;;;;;6.36;88.11;99837.45;1742758;81;20234;-81
2021/10/23 03:02:12;;;;;;;;;;;;;;;6.33;88.34;99839.03;1739421;81;20217;-83
2021/10/23 03:04:37;;;;;;;;;;;;;;;6.35;88.28;99851.52;1711573;81;21016;-82
2021/10/23 03:07:05;;;;;;;;;;;;;;;6.30;88.46;99853.73;1713310;81;20261;-82
2021/10/23 03:09:31;;;;;;;;;;;;;;;6.29;88.60;99849.44;1740697;81;20571;-83
2021/10/23 03:11:56;;;;;;;;;;;;;;;6.26;88.37;99893.83;1743418;81;20340;-82
2021/10/23 03:14:24;;;;;;;;;;;;;;;6.24;88.81;99862.14;1743309;81;20166;-82
2021/10/23 03:16:49;;;;;;;;;;;;;;;6.19;88.91;99870.90;1735095;81;21108;-82
2021/10/23 03:19:16;;;;;;;;;;;;;;;6.31;88.35;99868.52;1739058;81;20843;-83
2021/10/23 03:21:43;;;;;;;;;;;;;;;6.28;88.35;99874.02;1743883;81;20292;-84
2021/10/23 03:24:12;;;;;;;;;;;;;;;6.33;88.54;99874.44;1741515;81;20312;-84
2021/10/23 03:26:38;;;;;;;;;;;;;;;6.37;88.24;99873.21;1736489;81;20221;-83
2021/10/23 03:29:06;;;;;;;;;;;;;;;6.38;88.24;99880.09;1727339;81;21077;-83
2021/10/23 03:31:33;;;;;;;;;;;;;;;6.37;88.24;99869.73;1732860;81;20212;-83
2021/10/23 03:33:59;;;;;;;;;;;;;;;6.39;88.08;99900.13;1727129;82;20193;-82
2021/10/23 03:36:26;;;;;;;;;;;;;;;6.42;87.93;99869.69;1730355;81;20215;-81
2021/10/23 03:38:52;;;;;;;;;;;;;;;6.29;88.33;99868.64;1730095;81;20207;-82
2021/10/23 03:41:19;;;;;;;;;;;;;;;6.28;88.64;99881.89;1734991;81;21063;-82
2021/10/23 03:43:49;;;;;;;;;;;;;;;6.26;88.49;99903.00;1729702;82;20190;-81
2021/10/23 03:46:14;;;;;;;;;;;;;;;6.22;88.78;99906.84;1733467;82;20183;-84
2021/10/23 03:48:40;;;;;;;;;;;;;;;6.21;89.00;99891.25;1724670;81;20390;-82
2021/10/23 03:51:08;;;;;;;;;;;;;;;6.22;88.90;99912.58;1707022;82;20549;-84
2021/10/23 03:53:34;;;;;;;;;;;;;;;6.22;88.84;99883.25;1733074;82;21099;-84
2021/10/23 03:56:03;;;;;;;;;;;;;;;6.28;88.71;99889.76;1730493;81;20247;-83
2021/10/23 03:58:30;;;;;;;;;;;;;;;6.24;88.71;99898.84;1730369;82;20191;-83
2021/10/23 04:00:57;;;;;;;;;;;;;;;6.24;88.96;99885.73;1727812;82;20321;-82
2021/10/23 04:03:22;;;;;;;;;;;;;;;6.20;88.71;99907.93;1729982;82;20155;-81
2021/10/23 04:05:49;;;;;;;;;;;;;;;6.26;88.67;99898.22;1734731;80;21162;-80
2021/10/23 04:08:14;;;;;;;;;;;;;;;6.27;88.74;99893.33;1737766;80;20212;-81
2021/10/23 04:10:42;;;;;;;;;;;;;;;6.24;88.63;99906.72;1733663;78;20182;-82
2021/10/23 04:13:09;;;;;;;;;;;;;;;6.27;88.59;99911.69;1730990;81;20114;-82
2021/10/23 04:15:34;;;;;;;;;;;;;;;6.20;88.72;99917.11;1710998;82;20254;-79
2021/10/23 04:18:01;;;;;;;;;;;;;;;6.28;88.25;99908.11;1708461;82;22634;-80
2021/10/23 04:20:27;;;;;;;;;;;;;;;6.13;88.71;99919.94;1728096;82;20210;-81
2021/10/23 04:22:53;;;;;;;;;;;;;;;6.15;89.03;99923.24;1733114;81;20194;-80
2021/10/23 04:25:19;;;;;;;;;;;;;;;6.10;89.14;99933.64;1731735;82;20143;-81
2021/10/23 04:27:45;;;;;;;;;;;;;;;6.19;89.00;99928.58;1733281;81;20177;-81
2021/10/23 04:30:18;;;;;;;;;;;;;;;6.15;88.74;99956.83;1727425;82;21897;-80
2021/10/23 04:32:44;;;;;;;;;;;;;;;6.17;88.68;99956.70;1731798;81;20177;-79
2021/10/23 04:35:10;;;;;;;;;;;;;;;6.17;88.83;99958.02;1730518;82;20184;-81
2021/10/23 04:37:35;;;;;;;;;;;;;;;6.21;88.72;99960.73;1734461;81;20605;-82
2021/10/23 04:40:03;;;;;;;;;;;;;;;6.19;88.78;99961.35;1731391;81;20211;-80
2021/10/23 04:42:29;;;;;;;;;;;;;;;6.26;88.73;99967.70;1729607;81;21135;-80
2021/10/23 04:44:55;;;;;;;;;;;;;;;6.24;88.73;99981.44;1731829;82;20157;-81
2021/10/23 04:47:24;;;;;;;;;;;;;;;6.21;88.93;99991.70;1702849;82;20201;-80
2021/10/23 04:49:54;;;;;;;;;;;;;;;6.18;88.87;100020.80;1729655;82;20607;-81
2021/10/23 04:52:21;;;;;;;;;;;;;;;6.20;89.22;99982.66;1731853;82;20221;-81
2021/10/23 04:54:46;;;;;;;;;;;;;;;6.29;88.86;99975.31;1730051;82;21359;-81
2021/10/23 04:57:16;;;;;;;;;;;;;;;6.26;88.45;100001.80;1727315;82;20569;-80
2021/10/23 04:59:41;;;;;;;;;;;;;;;6.27;88.64;99999.53;1734118;82;20247;-81
2021/10/23 05:02:08;;;;;;;;;;;;;;;6.30;88.62;100001.89;1721592;82;20499;-81
2021/10/23 05:04:35;;;;;;;;;;;;;;;6.29;88.37;100010.71;1730701;82;20195;-82
2021/10/23 05:07:01;;;;;;;;;;;;;;;6.29;88.50;100004.16;1727131;81;21181;-81
2021/10/23 05:09:27;;;;;;;;;;;;;;;6.33;88.26;100000.31;1730872;82;20680;-81
2021/10/23 05:11:54;;;;;;;;;;;;;;;6.33;88.30;100016.05;1733923;82;20291;-81
2021/10/23 05:14:22;;;;;;;;;;;;;;;6.40;88.02;100017.20;1729026;82;20256;-80
2021/10/23 05:16:48;;;;;;;;;;;;;;;6.37;88.14;100012.67;1723881;82;20174;-81
2021/10/23 05:19:15;;;;;;;;;;;;;;;6.39;88.19;100019.95;1706139;82;22055;-81
2021/10/23 05:21:40;;;;;;;;;;;;;;;6.43;88.07;100016.94;1726562;81;20173;-80
2021/10/23 05:24:08;;;;;;;;;;;;;;;6.39;88.31;100037.00;1727917;82;20158;-81
2021/10/23 05:26:36;;;;;;;;;;;;;;;6.41;88.19;100020.64;1731473;81;20126;-81
2021/10/23 05:29:05;;;;;;;;;;;;;;;6.39;88.56;100031.27;1727504;81;20183;-81
2021/10/23 05:31:33;;;;;;;;;;;;;;;6.44;88.19;100027.75;1734903;81;20224;-80
2021/10/23 05:33:58;;;;;;;;;;;;;;;6.48;88.41;100032.27;1725105;82;20169;-81
2021/10/23 05:36:25;;;;;;;;;;;;;;;6.41;88.56;100054.25;1730697;80;20224;-82
2021/10/23 05:38:51;;;;;;;;;;;;;;;6.43;88.49;100035.75;1728520;82;20164;-81
2021/10/23 05:41:21;;;;;;;;;;;;;;;6.41;88.67;100032.44;1724238;82;20167;-82
2021/10/23 05:43:48;;;;;;;;;;;;;;;6.41;88.79;100031.95;1730073;81;20222;-81
2021/10/23 05:46:14;;;;;;;;;;;;;;;6.46;88.94;100053.39;1728057;81;20217;-81
2021/10/23 05:48:40;;;;;;;;;;;;;;;6.48;88.96;100042.77;1728013;82;20147;-81
2021/10/23 05:51:09;;;;;;;;;;;;;;;6.57;88.52;100038.03;1726264;82;20512;-81
2021/10/23 05:53:35;;;;;;;;;;;;;;;6.53;88.76;100060.73;1731172;81;20202;-80
2021/10/23 05:56:01;;;;;;;;;;;;;;;6.50;89.09;100042.63;1728226;82;21085;-81
2021/10/23 05:58:29;;;;;;;;;;;;;;;6.52;88.86;100059.06;1725523;81;20251;-81
2021/10/23 06:00:57;;;;;;;;;;;;;;;6.44;89.14;100061.85;1729063;82;20602;-81
2021/10/23 06:03:23;;;;;;;;;;;;;;;6.49;89.07;100064.58;1727289;82;20190;-82
2021/10/23 06:05:51;;;;;;;;;;;;;;;6.51;89.24;100063.48;1730479;81;20188;-81
2021/10/23 06:08:17;;;;;;;;;;;;;;;6.54;89.33;100076.80;1728342;82;21138;-81
2021/10/23 06:10:42;;;;;;;;;;;;;;;6.52;89.42;100069.55;1730749;82;20664;-80
2021/10/23 06:13:08;;;;;;;;;;;;;;;6.55;89.71;100071.91;1733730;82;20223;-80
2021/10/23 06:15:35;;;;;;;;;;;;;;;6.53;89.86;100075.16;1704411;82;20588;-82
2021/10/23 06:18:02;;;;;;;;;;;;;;;6.56;90.11;100063.09;1733074;82;20512;-82
2021/10/23 06:20:29;;;;;;;;;;;;;;;6.47;90.65;100099.62;1729802;81;20628;-83
2021/10/23 06:22:55;;;;;;;;;;;;;;;6.56;90.91;100095.89;1729573;82;20173;-83
2021/10/23 06:25:21;;;;;;;;;;;;;;;6.53;91.14;100139.44;1730105;82;20162;-81
2021/10/23 06:27:47;;;;;;;;;;;;;;;6.50;91.77;100090.67;1731200;81;20289;-82
2021/10/23 06:30:14;;;;;;;;;;;;;;;6.50;92.07;100113.47;1736013;82;20587;-82
2021/10/23 06:32:48;;;;;;;;;;;;;;;6.46;92.34;100101.06;1706770;82;22433;-82
2021/10/23 06:35:14;;;;;;;;;;;;;;;6.52;92.58;100115.47;1735353;82;20324;-83
2021/10/23 06:37:41;;;;;;;;;;;;;;;6.47;93.45;100115.37;1730669;82;20194;-81
2021/10/23 06:40:08;;;;;;;;;;;;;;;6.32;94.61;100117.97;1707578;81;20538;-82
2021/10/23 06:42:33;;;;;;;;;;;;;;;6.39;95.42;100120.44;1702210;81;20475;-82
2021/10/23 06:44:59;;;;;;;;;;;;;;;6.39;95.89;100117.81;1731794;82;21123;-82
2021/10/23 06:47:24;;;;;;;;;;;;;;;6.36;96.19;100107.59;1734685;82;20306;-83
2021/10/23 06:49:53;;;;;;;;;;;;;;;6.36;95.80;100127.75;1737189;81;20186;-82
2021/10/23 06:52:21;;;;;;;;;;;;;;;6.41;95.97;100113.27;1733311;81;20254;-81
2021/10/23 06:54:49;;;;;;;;;;;;;;;6.40;95.71;100109.00;1738312;81;20095;-82
2021/10/23 06:57:16;;;;;;;;;;;;;;;6.44;95.80;100119.56;1732860;82;21088;-82
2021/10/23 06:59:43;;;;;;;;;;;;;;;6.43;95.64;100125.79;1734147;82;20691;-81
2021/10/23 07:02:10;;;;;;;;;;;;;;;6.41;95.56;100117.69;1738229;82;20182;-81
2021/10/23 07:04:36;;;;;;;;;;;;;;;6.41;95.58;100130.31;1732930;81;20933;-81
2021/10/23 07:07:01;;;;;;;;;;;;;;;6.46;95.52;100139.95;1704661;82;20174;-80
2021/10/23 07:09:27;;;;;;;;;;;;;;;6.56;95.20;100144.42;1735495;82;21087;-80
2021/10/23 07:11:53;;;;;;;;;;;;;;;6.57;94.70;100132.48;1736773;81;20244;-81
2021/10/23 07:14:20;;;;;;;;;;;;;;;6.64;94.85;100139.34;1733033;82;20231;-81
2021/10/23 07:16:47;;;;;;;;;;;;;;;6.63;94.34;100136.36;1732979;81;20592;-80
2021/10/23 07:19:13;;;;;;;;;;;;;;;6.64;93.90;100147.22;1706850;82;20593;-81
2021/10/23 07:21:41;;;;;;;;;;;;;;;6.71;93.47;100145.74;1735134;82;22036;-80
2021/10/23 07:24:08;;;;;;;;;;;;;;;6.68;93.00;100140.76;1734001;81;20690;-79
2021/10/23 07:26:37;;;;;;;;;;;;;;;6.67;92.21;100154.83;1733943;82;20170;-81
2021/10/23 07:29:03;;;;;;;;;;;;;;;6.76;92.09;100143.55;1722325;82;20362;-80
2021/10/23 07:31:32;;;;;;;;;;;;;;;6.83;91.96;100151.22;1714503;82;20228;-82
2021/10/23 07:33:58;;;;;;;;;;;;;;;6.78;91.27;100180.98;1714474;82;22253;-81
2021/10/23 07:36:25;;;;;;;;;;;;;;;6.72;90.96;100178.88;1716255;82;20172;-81
2021/10/23 07:38:53;;;;;;;;;;;;;;;6.73;91.14;100159.55;1711522;82;20526;-81
2021/10/23 07:41:18;;;;;;;;;;;;;;;6.74;90.91;100176.98;1713413;82;20520;-81
2021/10/23 07:43:46;;;;;;;;;;;;;;;6.72;91.34;100168.38;1712487;82;20385;-81
2021/10/23 07:46:16;;;;;;;;;;;;;;;6.78;91.65;100169.66;1712804;82;21055;-80
2021/10/23 07:48:42;;;;;;;;;;;;;;;6.75;91.27;100186.49;1709677;82;20255;-82
2021/10/23 07:51:11;;;;;;;;;;;;;;;6.70;91.57;100214.92;1704274;82;20651;-81
2021/10/23 07:53:37;;;;;;;;;;;;;;;6.75;91.96;100173.37;1708519;82;20252;-81
2021/10/23 07:56:03;;;;;;;;;;;;;;;6.76;91.68;100185.54;1709615;82;20672;-80
2021/10/23 07:58:31;;;;;;;;;;;;;;;6.75;91.86;100178.62;1686689;82;21140;-80
2021/10/23 08:00:57;;;;;;;;;;;;;;;6.76;91.53;100185.54;1707783;82;21003;-80
2021/10/23 08:03:25;;;;;;;;;;;;;;;6.77;91.56;100190.30;1707755;82;20419;-80
2021/10/23 08:05:55;;;;;;;;;;;;;;;6.80;91.91;100179.05;1708088;82;20384;-80
2021/10/23 08:08:21;;;;;;;;;;;;;;;6.86;91.56;100195.25;1700227;82;20257;-81
2021/10/23 08:10:49;;;;;;;;;;;;;;;6.86;91.44;100186.06;1708493;82;22164;-81
2021/10/23 08:13:17;;;;;;;;;;;;;;;6.75;91.45;100217.16;1711683;82;20181;-82
2021/10/23 08:15:44;;;;;;;;;;;;;;;6.83;91.58;100191.09;1709648;82;20327;-80
2021/10/23 08:18:16;;;;;;;;;;;;;;;6.86;91.48;100216.25;1709132;82;20417;-80
2021/10/23 08:20:42;;;;;;;;;;;;;;;6.88;90.71;100189.38;1707911;82;20197;-80
2021/10/23 08:23:12;;;;;;;;;;;;;;;6.92;90.65;100201.30;1713731;82;21313;-81
2021/10/23 08:25:38;;;;;;;;;;;;;;;6.93;90.76;100235.75;1704822;82;20288;-79
2021/10/23 08:28:06;;;;;;;;;;;;;;;6.93;90.35;100214.75;1705666;82;20239;-80
2021/10/23 08:30:33;;;;;;;;;;;;;;;6.93;90.34;100218.69;1731009;82;20597;-81
2021/10/23 08:33:01;;;;;;;;;;;;;;;7.00;89.80;100208.02;1733446;82;20208;-80
2021/10/23 08:35:27;;;;;;;;;;;;;;;7.01;89.62;100230.20;1735754;81;21203;-80
2021/10/23 08:37:55;;;;;;;;;;;;;;;7.06;89.86;100225.88;1737685;81;20869;-81
2021/10/23 08:40:23;;;;;;;;;;;;;;;7.09;89.59;100228.24;1742005;81;20235;-80
2021/10/23 08:42:51;;;;;;;;;;;;;;;7.05;89.13;100279.34;1739341;81;20198;-81
2021/10/23 08:45:17;;;;;;;;;;;;;;;7.11;88.74;100243.86;1711746;81;20231;-79
2021/10/23 08:47:44;;;;;;;;;;;;;;;7.12;88.90;100254.23;1736202;81;21815;-81
2021/10/23 08:50:12;;;;;;;;;;;;;;;7.11;88.36;100248.62;1740602;82;20303;-80
2021/10/23 08:52:41;;;;;;;;;;;;;;;7.13;87.95;100245.87;1738771;82;20182;-81
2021/10/23 08:55:07;;;;;;;;;;;;;;;7.15;87.93;100246.09;1736412;81;20703;-82
2021/10/23 08:57:34;;;;;;;;;;;;;;;7.15;87.90;100261.03;1740542;82;20181;-81
2021/10/23 09:00:01;;;;;;;;;;;;;;;7.25;87.74;100248.75;1740922;82;21079;-80
2021/10/23 09:02:29;;;;;;;;;;;;;;;7.37;87.39;100252.12;1736387;82;20604;-81
2021/10/23 09:05:00;;;;;;;;;;;;;;;7.23;87.43;100284.02;1738344;81;20187;-81
2021/10/23 09:07:26;;;;;;;;;;;;;;;7.18;87.67;100269.47;1736766;81;20256;-81
2021/10/23 09:09:56;;;;;;;;;;;;;;;7.31;87.63;100263.17;1736624;82;20640;-80
2021/10/23 09:12:28;;;;;;;;;;;;;;;7.28;87.40;100277.87;1678128;82;22148;-82
2021/10/23 09:15:11;;;;;;;;;;;;;;;7.27;87.45;100265.23;1734787;82;20343;-82
2021/10/23 09:17:44;;;;;;;;;;;;;;;7.31;87.50;100271.87;1735452;82;21040;-79
2021/10/23 09:20:11;;;;;;;;;;;;;;;7.32;87.17;100307.69;1738890;82;20114;-81
2021/10/23 09:22:41;;;;;;;;;;;;;;;7.30;87.41;100296.95;1741291;82;20209;-79
2021/10/23 09:25:24;;;;;;;;;;;;;;;7.35;86.98;100298.73;1738981;82;21261;-80
2021/10/23 09:28:05;;;;;;;;;;;;;;;7.35;86.98;100290.84;1742103;81;20122;-81
2021/10/23 09:30:41;;;;;;;;;;;;;;;7.32;86.76;100301.13;1740519;81;20190;-81
2021/10/23 09:33:08;;;;;;;;;;;;;;;7.35;86.45;100306.61;1739604;81;20184;-82
2021/10/23 09:35:37;;;;;;;;;;;;;;;7.32;86.30;100309.50;1691995;81;21123;-81
2021/10/23 09:38:05;;;;;;;;;;;;;;;7.35;86.11;100335.51;1709378;81;21972;-81
2021/10/23 09:40:33;;;;;;;;;;;;;;;7.29;85.78;100330.77;1741340;81;20239;-81
2021/10/23 09:43:16;;;;;;;;;;;;;;;7.37;85.25;100308.61;1740555;81;20319;-81
2021/10/23 09:46:00;;;;;;;;;;;;;;;7.41;85.43;100310.48;1735057;81;20689;-81
2021/10/23 09:48:49;;;;;;;;;;;;;;;7.40;85.15;100318.86;1733919;81;21080;-83
2021/10/23 09:51:30;;;;;;;;;;;;;;;7.53;85.20;100310.25;1738459;81;21154;-83
2021/10/23 09:54:01;;;;;;;;;;;;;;;7.51;84.59;100324.51;1737525;81;20146;-83
2021/10/23 09:56:33;;;;;;;;;;;;;;;7.55;84.34;100314.91;1741202;81;20214;-83
2021/10/23 09:59:07;;;;;;;;;;;;;;;7.49;84.15;100316.76;1733664;81;20188;-81
2021/10/23 10:01:43;;;;;;;;;;;;;;;7.60;83.29;100320.23;1736679;81;20204;-80
2021/10/23 10:04:08;;;;;;;;;;;;;;;7.62;83.10;100345.43;1737307;81;20129;-81
2021/10/23 10:06:38;;;;;;;;;;;;;;;7.59;83.13;100318.59;1735487;81;20142;-81
2021/10/23 10:09:07;;;;;;;;;;;;;;;7.68;83.15;100331.76;1738834;81;20174;-81
2021/10/23 10:11:35;;;;;;;;;;;;;;;7.68;82.94;100325.69;1699556;81;40640;-83
2021/10/23 10:14:05;;;;;;;;;;;;;;;7.67;82.40;100372.14;1737432;81;20218;-81
2021/10/23 10:16:32;;;;;;;;;;;;;;;7.67;81.75;100340.60;1737289;81;22096;-83
2021/10/23 10:18:57;;;;;;;;;;;;;;;7.72;82.09;100323.12;1705683;81;20126;-83
2021/10/23 10:21:25;;;;;;;;;;;;;;;7.84;81.44;100323.86;1739539;80;20158;-81
2021/10/23 10:23:54;;;;;;;;;;;;;;;7.96;81.03;100329.36;1736255;81;20653;-79
2021/10/23 10:26:28;;;;;;;;;;;;;;;8.00;81.03;100323.33;1706843;81;20178;-82
2021/10/23 10:29:26;;;;;;;;;;;;;;;8.04;80.35;100318.16;1739632;81;21015;-81
2021/10/23 10:32:04;;;;;;;;;;;;;;;8.01;79.78;100352.63;1705569;82;20865;-83
2021/10/23 10:43:13;;;;;;;;;;;;;;;8.04;79.73;100340.02;1721436;82;20220;-78
2021/10/23 10:45:48;;;;;;;;;;;;;;;7.94;79.76;100365.95;1730862;82;20661;-80
2021/10/23 10:48:29;;;;;;;;;;;;;;;7.86;79.83;100352.16;1725205;82;20504;-81
2021/10/23 10:51:01;;;;;;;;;;;;;;;7.85;80.39;100356.59;1726606;81;20198;-80
2021/10/23 10:53:29;;;;;;;;;;;;;;;7.86;80.25;100379.30;1723770;82;20323;-80
2021/10/23 10:56:17;;;;;;;;;;;;;;;7.89;80.40;100373.77;1724568;82;21203;-82
2021/10/23 10:58:56;;;;;;;;;;;;;;;7.95;80.45;100374.20;1729895;82;20204;-79
2021/10/23 11:01:23;;;;;;;;;;;;;;;7.91;80.47;100361.31;1728879;82;20220;-78
2021/10/23 11:04:02;;;;;;;;;;;;;;;7.98;80.42;100365.55;1729818;81;20146;-83
2021/10/23 11:06:34;;;;;;;;;;;;;;;7.97;80.15;100382.77;1711703;82;20171;-85
2021/10/23 11:09:16;;;;;;;;;;;;;;;7.97;80.07;100388.03;1729081;81;22116;-80
2021/10/23 11:11:49;;;;;;;;;;;;;;;7.86;79.97;100404.27;1728542;81;20155;-82
2021/10/23 11:14:31;;;;;;;;;;;;;;;7.88;80.40;100393.63;1726731;82;20198;-82
2021/10/23 11:17:00;;;;;;;;;;;;;;;7.83;80.37;100405.00;1728510;82;20224;-80
2021/10/23 11:19:47;;;;;;;;;;;;;;;7.90;80.27;100405.66;1726562;82;20184;-81
2021/10/23 11:22:22;;;;;;;;;;;;;;;7.98;80.22;100384.45;1722260;81;21184;-84
2021/10/23 11:25:07;;;;;;;;;;;;;;;7.95;80.10;100392.60;1728771;81;20357;-78
2021/10/23 11:27:43;;;;;;;;;;;;;;;7.97;80.04;100391.52;1729892;82;20585;-83
2021/10/23 11:30:33;;;;;;;;;;;;;;;8.01;80.04;100413.11;1720027;82;20200;-82
2021/10/23 11:33:03;;;;;;;;;;;;;;;7.96;79.93;100395.59;1715166;82;20161;-80
2021/10/23 11:35:37;;;;;;;;;;;;;;;7.96;79.99;100410.88;1721123;82;21979;-84
2021/10/23 11:38:03;;;;;;;;;;;;;;;7.97;80.17;100422.22;1693946;82;20198;-81
2021/10/23 11:40:29;;;;;;;;;;;;;;;8.00;80.38;100393.02;1715522;82;20344;-82
2021/10/23 11:42:55;;;;;;;;;;;;;;;8.12;80.40;100397.22;1708215;82;20326;-79
2021/10/23 11:45:28;;;;;;;;;;;;;;;8.12;80.93;100415.63;1715277;82;20562;-84
2021/10/23 11:47:55;;;;;;;;;;;;;;;8.09;81.56;100413.27;1711005;82;21108;-82
2021/10/23 11:50:33;;;;;;;;;;;;;;;8.18;81.61;100432.19;1682270;82;20233;-81
2021/10/23 11:53:21;;;;;;;;;;;;;;;8.14;83.52;100402.34;1712379;82;20252;-81
2021/10/23 11:55:50;;;;;;;;;;;;;;;8.08;84.95;100419.52;1715081;82;20926;-82
2021/10/23 11:58:19;;;;;;;;;;;;;;;8.09;85.93;100411.95;1715416;82;20241;-81
2021/10/23 12:00:50;;;;;;;;;;;;;;;8.05;86.05;100419.78;1712683;82;21907;-81
2021/10/23 12:03:17;;;;;;;;;;;;;;;7.89;86.00;100418.47;1709773;82;20269;-80
2021/10/23 12:05:51;;;;;;;;;;;;;;;7.85;85.38;100419.69;1715873;82;20263;-82
2021/10/23 12:08:27;;;;;;;;;;;;;;;7.86;85.38;100426.63;1715895;82;20308;-81
2021/10/23 12:11:15;;;;;;;;;;;;;;;7.84;84.59;100454.82;1713891;82;20641;-79
2021/10/23 12:14:08;;;;;;;;;;;;;;;7.91;84.31;100426.23;1715761;82;20201;-80
2021/10/23 12:16:44;;;;;;;;;;;;;;;7.88;83.50;100437.83;1716648;82;20229;-80
2021/10/23 12:19:17;;;;;;;;;;;;;;;7.86;83.44;100450.28;1715073;82;20242;-81
2021/10/23 12:21:54;;;;;;;;;;;;;;;7.91;83.57;100453.34;1684609;82;20229;-81
2021/10/23 12:24:39;;;;;;;;;;;;;;;7.94;83.91;100439.11;1721363;82;20212;-81
2021/10/23 12:27:24;;;;;;;;;;;;;;;7.90;83.44;100451.67;1714175;82;21300;-82
2021/10/23 12:30:04;;;;;;;;;;;;;;;7.91;83.44;100477.02;1690635;81;20185;-82
2021/10/23 12:32:37;;;;;;;;;;;;;;;7.96;83.24;100452.95;1753299;81;20217;-80
2021/10/23 12:35:23;;;;;;;;;;;;;;;7.96;83.47;100446.87;1751291;81;20796;-80
2021/10/23 12:37:56;;;;;;;;;;;;;;;7.89;83.44;100459.69;1732001;81;20606;-82
2021/10/23 12:40:35;;;;;;;;;;;;;;;8.01;83.68;100453.87;1749133;81;20168;-80
2021/10/23 12:43:07;;;;;;;;;;;;;;;8.00;83.10;100441.67;1752465;81;20273;-81
2021/10/23 12:45:42;;;;;;;;;;;;;;;8.01;83.00;100499.89;1746546;81;20104;-82
2021/10/23 12:48:14;;;;;;;;;;;;;;;8.05;84.06;100473.70;1746258;81;20129;-82
2021/10/23 12:50:41;;;;;;;;;;;;;;;8.08;84.61;100462.91;1750729;81;20178;-81
2021/10/23 12:53:09;;;;;;;;;;;;;;;8.08;84.89;100469.48;1749520;80;21109;-82
2021/10/23 12:55:36;;;;;;;;;;;;;;;8.07;85.20;100498.06;1747967;81;20228;-81
2021/10/23 12:58:04;;;;;;;;;;;;;;;8.13;84.97;100484.38;1751216;81;20175;-81
2021/10/23 13:00:34;;;;;;;;;;;;;;;8.26;84.92;100477.56;1750982;81;20842;-81
2021/10/23 13:03:00;;;;;;;;;;;;;;;8.33;84.67;100469.97;1747121;81;20193;-79
2021/10/23 13:05:27;;;;;;;;;;;;;;;8.39;84.51;100478.64;1747346;81;21089;-81
2021/10/23 13:07:52;;;;;;;;;;;;;;;8.37;84.67;100485.35;1751542;81;20172;-79